Time;durP1;ratioP1;P1;durP2;ratioP2;P2;SDS_P1;SDS_P2;PMS_P1;PMS_P2;Temp;Humidity;BMP_temperature;BMP_pressure;BME280_temperature;BME280_humidity;BME280_pressure;Samples;Min_cycle;Max_cycle;Signal;HPM_P1;HPM_P2
2021/12/26 00:00:27;;;;;;;12.87;11.67;;;;;;;6.54;100.00;95570.47;5060540;28;20214;-73
2021/12/26 00:02:54;;;;;;;14.27;12.87;;;;;;;6.52;100.00;95567.13;5056256;28;20234;-71
2021/12/26 00:05:22;;;;;;;13.90;12.60;;;;;;;6.47;100.00;95577.25;5054809;28;20218;-72
2021/12/26 00:07:49;;;;;;;13.17;11.87;;;;;;;6.49;100.00;95570.88;5054974;28;20511;-71
2021/12/26 00:10:17;;;;;;;14.90;13.40;;;;;;;6.46;100.00;95570.34;5054503;28;20615;-74
2021/12/26 00:12:44;;;;;;;14.90;13.50;;;;;;;6.46;100.00;95568.53;5054914;28;20522;-73
2021/12/26 00:15:11;;;;;;;14.40;13.00;;;;;;;6.45;100.00;95569.50;5054811;28;20230;-76
2021/12/26 00:17:38;;;;;;;15.13;13.60;;;;;;;6.45;100.00;95558.19;5059010;28;20234;-74
2021/12/26 00:20:07;;;;;;;14.67;13.27;;;;;;;6.48;100.00;95558.72;5054569;28;20221;-76
2021/12/26 00:22:34;;;;;;;14.30;12.90;;;;;;;6.50;100.00;95555.97;5054636;28;20226;-74
2021/12/26 00:25:01;;;;;;;13.83;12.43;;;;;;;6.45;100.00;95561.63;5052947;28;20207;-72
2021/12/26 00:27:28;;;;;;;14.67;13.27;;;;;;;6.47;100.00;95561.50;5059271;28;20213;-71
2021/12/26 00:29:54;;;;;;;14.63;13.17;;;;;;;6.43;100.00;95560.13;5072172;28;20206;-73
2021/12/26 00:32:21;;;;;;;14.10;12.77;;;;;;;6.46;100.00;95557.22;5067693;28;20203;-73
2021/12/26 00:34:50;;;;;;;14.40;12.90;;;;;;;6.40;100.00;95561.25;5072374;28;20204;-71
2021/12/26 00:37:17;;;;;;;14.03;12.73;;;;;;;6.43;100.00;95560.13;5056946;28;20278;-72
2021/12/26 00:39:44;;;;;;;14.70;13.10;;;;;;;6.43;100.00;95563.59;5070507;28;20231;-73
2021/12/26 00:42:11;;;;;;;14.00;12.53;;;;;;;6.48;100.00;95560.53;5071538;28;20230;-73
2021/12/26 00:44:39;;;;;;;14.60;13.10;;;;;;;6.46;100.00;95562.47;5070869;28;20210;-72
2021/12/26 00:47:06;;;;;;;13.80;12.40;;;;;;;6.48;100.00;95557.91;5054633;28;20203;-73
2021/12/26 00:49:33;;;;;;;14.23;12.93;;;;;;;6.48;100.00;95556.09;5061459;28;20267;-71
2021/12/26 00:52:01;;;;;;;14.43;12.93;;;;;;;6.53;100.00;95555.66;5074809;28;20203;-74
2021/12/26 00:54:28;;;;;;;15.00;13.57;;;;;;;6.49;100.00;95552.50;5061213;28;20214;-76
2021/12/26 00:56:56;;;;;;;15.27;13.80;;;;;;;6.55;100.00;95560.78;5068328;28;20321;-73
2021/12/26 00:59:22;;;;;;;14.90;13.13;;;;;;;6.54;100.00;95557.31;5059382;28;20214;-72
2021/12/26 01:01:49;;;;;;;14.10;12.80;;;;;;;6.52;100.00;95551.38;5059852;28;20238;-70
2021/12/26 01:04:15;;;;;;;14.63;13.13;;;;;;;6.58;100.00;95560.50;5057813;28;20660;-69
2021/12/26 01:06:43;;;;;;;13.90;12.50;;;;;;;6.57;100.00;95554.41;5058157;28;20211;-75
2021/12/26 01:09:15;;;;;;;12.97;11.67;;;;;;;6.57;100.00;95551.78;5070881;28;20206;-75
2021/12/26 01:11:48;;;;;;;12.20;11.10;;;;;;;6.52;100.00;95551.38;5086054;28;20206;-74
2021/12/26 01:14:24;;;;;;;13.00;10.83;;;;;;;6.53;100.00;95553.03;5081928;28;20705;-71
2021/12/26 01:17:00;;;;;;;12.60;11.27;;;;;;;6.48;100.00;95550.03;5057562;28;20580;-71
2021/12/26 01:19:32;;;;;;;12.87;11.63;;;;;;;6.48;100.00;95550.03;5045493;28;20265;-74
2021/12/26 01:21:59;;;;;;;12.37;11.07;;;;;;;6.49;100.00;95551.66;5059300;28;20231;-69
2021/12/26 01:24:27;;;;;;;12.97;11.70;;;;;;;6.48;100.00;95557.91;5077173;28;20202;-71
2021/12/26 01:26:53;;;;;;;12.07;10.97;;;;;;;6.47;100.00;95553.63;5061100;28;20203;-70
2021/12/26 01:29:20;;;;;;;12.23;11.13;;;;;;;6.49;100.00;95559.53;5057623;28;20207;-71
2021/12/26 01:31:47;;;;;;;12.37;11.17;;;;;;;6.52;100.00;95561.09;5076201;28;20210;-70
2021/12/26 01:34:13;;;;;;;12.37;11.17;;;;;;;6.51;100.00;95562.88;5066649;28;20233;-73
2021/12/26 01:36:39;;;;;;;12.07;10.90;;;;;;;6.48;100.00;95565.78;5063389;28;20196;-71
2021/12/26 01:39:08;;;;;;;11.93;10.83;;;;;;;6.48;100.00;95566.59;5067901;28;20200;-70
2021/12/26 01:41:40;;;;;;;11.23;10.23;;;;;;;6.47;100.00;95578.09;5055399;28;20247;-73
2021/12/26 01:44:10;;;;;;;11.07;9.80;;;;;;;6.50;100.00;95582.22;5055606;28;20199;-70
2021/12/26 01:46:37;;;;;;;10.00;9.20;;;;;;;6.48;100.00;95584.16;5057983;28;20230;-73
2021/12/26 01:49:07;;;;;;;10.83;9.83;;;;;;;6.53;100.00;95587.19;5071351;28;20214;-75
2021/12/26 01:51:34;;;;;;;9.80;8.90;;;;;;;6.51;100.00;95586.50;5079780;28;20214;-72
2021/12/26 01:54:04;;;;;;;9.90;9.00;;;;;;;6.52;100.00;95585.50;5074929;28;20205;-71
2021/12/26 01:56:31;;;;;;;10.13;9.13;;;;;;;6.53;100.00;95588.97;5081656;28;20305;-72
2021/12/26 01:58:59;;;;;;;10.10;9.27;;;;;;;6.59;100.00;95583.16;5069208;28;20218;-73
2021/12/26 02:01:26;;;;;;;11.10;10.10;;;;;;;6.54;100.00;95591.47;5066717;28;20225;-72
2021/12/26 02:03:52;;;;;;;10.70;9.53;;;;;;;6.52;100.00;95584.72;5055473;28;20642;-72
2021/12/26 02:06:21;;;;;;;10.10;9.20;;;;;;;6.52;100.00;95590.75;5052418;28;20230;-71
2021/12/26 02:08:47;;;;;;;10.00;9.00;;;;;;;6.47;100.00;95585.97;5056192;28;20218;-73
2021/12/26 02:11:14;;;;;;;10.03;9.13;;;;;;;6.50;100.00;95590.94;5056142;28;20199;-69
2021/12/26 02:13:41;;;;;;;10.30;9.40;;;;;;;6.52;100.00;95582.09;5045320;28;20204;-73
2021/12/26 02:16:10;;;;;;;10.17;9.37;;;;;;;6.47;100.00;95585.13;5048720;28;20217;-73
2021/12/26 02:18:36;;;;;;;10.10;9.30;;;;;;;6.50;100.00;95585.69;5076616;28;20207;-71
2021/12/26 02:21:15;;;;;;;9.87;9.03;;;;;;;6.53;100.00;95584.56;5076029;28;20530;-73
2021/12/26 02:23:48;;;;;;;10.07;9.27;;;;;;;6.48;100.00;95582.34;5058049;28;20219;-72
2021/12/26 02:28:58;;;;;;;9.83;8.97;;;;;;;6.51;100.00;95586.50;5051358;28;20205;-72
2021/12/26 02:31:25;;;;;;;9.33;8.53;;;;;;;6.48;100.00;95581.53;5045140;28;20202;-71
2021/12/26 02:33:51;;;;;;;9.70;8.80;;;;;;;6.51;100.00;95591.75;5048281;28;20212;-71
2021/12/26 02:36:19;;;;;;;9.43;8.63;;;;;;;6.44;100.00;95582.81;5065152;28;20205;-75
2021/12/26 02:38:46;;;;;;;9.90;9.00;;;;;;;6.45;100.00;95595.78;5057934;28;20218;-76
2021/12/26 02:41:12;;;;;;;9.03;8.23;;;;;;;6.57;100.00;95585.91;5055679;28;20246;-74
2021/12/26 02:43:39;;;;;;;10.63;9.73;;;;;;;6.54;100.00;95583.59;5055811;28;20223;-72
2021/12/26 02:46:07;;;;;;;9.90;9.00;;;;;;;6.54;100.00;95586.22;5055333;28;20542;-72
2021/12/26 02:48:35;;;;;;;9.87;9.07;;;;;;;6.51;100.00;95591.75;5062056;28;20289;-72
2021/12/26 02:51:01;;;;;;;9.97;9.00;;;;;;;6.54;100.00;95591.47;5076105;28;20664;-75
2021/12/26 02:53:29;;;;;;;10.00;9.17;;;;;;;6.59;100.00;95591.84;5076329;28;20249;-76
2021/12/26 02:55:57;;;;;;;9.83;9.03;;;;;;;6.54;100.00;95588.00;5066211;28;20222;-76
2021/12/26 02:58:24;;;;;;;9.60;8.70;;;;;;;6.52;100.00;95588.13;5055905;28;20203;-75
2021/12/26 03:00:53;;;;;;;10.10;9.20;;;;;;;6.45;100.00;95581.81;5056398;28;20214;-72
2021/12/26 03:03:20;;;;;;;9.67;8.77;;;;;;;6.49;100.00;95588.44;5057496;28;20223;-71
2021/12/26 03:05:54;;;;;;;10.17;9.27;;;;;;;6.45;100.00;95587.91;5067063;28;20521;-71
2021/12/26 03:08:21;;;;;;;9.47;8.57;;;;;;;6.48;100.00;95586.81;5064916;28;20231;-73
2021/12/26 03:10:48;;;;;;;10.07;9.13;;;;;;;6.40;100.00;95590.13;5059015;28;20214;-75
2021/12/26 03:13:15;;;;;;;10.23;9.33;;;;;;;6.44;100.00;95588.06;5061745;28;20203;-73
2021/12/26 03:15:43;;;;;;;9.70;8.87;;;;;;;6.48;100.00;95592.06;5078008;28;20221;-72
2021/12/26 03:18:09;;;;;;;9.77;8.90;;;;;;;6.45;100.00;95587.06;5091698;28;20209;-75
2021/12/26 03:20:39;;;;;;;10.07;9.17;;;;;;;6.46;100.00;95594.81;5069674;28;20202;-72
2021/12/26 03:23:08;;;;;;;10.63;9.60;;;;;;;6.41;100.00;95596.22;5066541;28;20227;-72
2021/12/26 03:25:34;;;;;;;10.50;9.50;;;;;;;6.46;100.00;95599.22;5057193;28;20234;-75
2021/12/26 03:28:04;;;;;;;10.67;9.73;;;;;;;6.49;100.00;95596.31;5075243;28;20210;-74
2021/12/26 03:30:31;;;;;;;10.73;9.67;;;;;;;6.48;100.00;95595.47;5066459;28;20221;-76
2021/12/26 03:32:59;;;;;;;10.70;9.77;;;;;;;6.48;100.00;95594.69;5075513;28;20213;-73
2021/12/26 03:35:28;;;;;;;11.63;10.53;;;;;;;6.53;100.00;95591.59;5065513;28;20207;-72
2021/12/26 03:37:55;;;;;;;10.87;9.90;;;;;;;6.51;100.00;95599.63;5054374;28;20218;-71
2021/12/26 03:40:21;;;;;;;10.73;9.83;;;;;;;6.52;100.00;95598.66;5054904;28;20734;-76
2021/12/26 03:42:51;;;;;;;11.27;10.20;;;;;;;6.55;100.00;95600.19;5055360;28;20223;-76
2021/12/26 03:45:18;;;;;;;10.77;9.87;;;;;;;6.53;100.00;95597.69;5055041;28;20207;-72
2021/12/26 03:47:48;;;;;;;10.57;9.67;;;;;;;6.49;100.00;95599.78;5055413;28;20611;-75
2021/12/26 03:50:15;;;;;;;12.60;11.40;;;;;;;6.52;100.00;95596.03;5056305;28;20256;-74
2021/12/26 03:52:42;;;;;;;11.60;10.60;;;;;;;6.54;100.00;95606.41;5059009;28;20203;-76
2021/12/26 03:55:08;;;;;;;10.03;9.13;;;;;;;6.55;100.00;95603.63;5063954;28;20222;-74
2021/12/26 03:57:35;;;;;;;11.57;10.47;;;;;;;6.54;100.00;95601.13;5063171;28;20230;-75
2021/12/26 04:00:01;;;;;;;10.67;9.77;;;;;;;6.51;100.00;95607.50;5060462;28;20211;-76
2021/12/26 04:02:29;;;;;;;11.43;10.43;;;;;;;6.51;100.00;95597.00;5064060;28;20227;-74
2021/12/26 04:04:56;;;;;;;10.63;9.67;;;;;;;6.55;100.00;95597.56;5061668;28;20658;-75
2021/12/26 04:07:22;;;;;;;10.10;9.20;;;;;;;6.55;100.00;95603.63;5059761;28;20227;-73
2021/12/26 04:09:49;;;;;;;11.47;10.47;;;;;;;6.56;100.00;95605.28;5062530;28;20623;-73
2021/12/26 04:12:15;;;;;;;11.50;10.50;;;;;;;6.59;100.00;95598.94;5062135;28;20210;-71
2021/12/26 04:14:41;;;;;;;10.33;9.43;;;;;;;6.56;100.00;95599.19;5086795;28;20221;-73
2021/12/26 04:17:08;;;;;;;10.93;9.93;;;;;;;6.51;100.00;95597.00;5076578;28;20199;-71
2021/12/26 04:19:36;;;;;;;11.77;10.67;;;;;;;6.52;100.00;95598.66;5051000;28;20223;-73
2021/12/26 04:22:03;;;;;;;11.07;10.00;;;;;;;6.54;100.00;95595.88;5064850;28;20199;-72
2021/12/26 04:24:30;;;;;;;11.93;9.60;;;;;;;6.56;100.00;95601.81;5084704;28;20229;-72
2021/12/26 04:26:57;;;;;;;10.53;9.57;;;;;;;6.56;100.00;95600.03;5072720;28;20211;-71
2021/12/26 04:29:23;;;;;;;10.37;9.47;;;;;;;6.56;100.00;95600.03;5064367;28;20554;-75
2021/12/26 04:31:50;;;;;;;9.80;9.00;;;;;;;6.55;100.00;95603.63;5078018;28;20206;-75
2021/12/26 04:34:16;;;;;;;10.13;9.23;;;;;;;6.61;100.00;95604.84;5070099;28;20202;-75
2021/12/26 04:36:44;;;;;;;9.87;8.90;;;;;;;6.60;100.00;95606.63;5065266;28;20215;-75
2021/12/26 04:39:10;;;;;;;9.93;9.03;;;;;;;6.59;100.00;95607.59;5064709;28;20207;-73
2021/12/26 04:41:37;;;;;;;10.03;9.13;;;;;;;6.58;100.00;95608.59;5064241;28;20203;-73
2021/12/26 04:44:04;;;;;;;10.93;9.83;;;;;;;6.54;100.00;95609.84;5070954;28;20219;-71
2021/12/26 04:46:30;;;;;;;11.17;9.93;;;;;;;6.59;100.00;95622.56;5078021;28;20207;-75
2021/12/26 04:48:56;;;;;;;11.30;10.30;;;;;;;6.54;100.00;95614.28;5061243;28;20217;-71
2021/12/26 04:51:23;;;;;;;11.20;10.20;;;;;;;6.55;100.00;95624.66;5077020;28;20211;-74
2021/12/26 04:53:51;;;;;;;11.33;10.33;;;;;;;6.50;100.00;95616.34;5063271;28;20204;-75
2021/12/26 04:56:17;;;;;;;10.60;9.67;;;;;;;6.53;100.00;95618.69;5061813;28;20211;-75
2021/12/26 04:58:43;;;;;;;11.40;10.33;;;;;;;6.49;100.00;95615.53;5063369;28;20211;-73
2021/12/26 05:01:10;;;;;;;11.17;10.17;;;;;;;6.52;100.00;95624.91;5066477;28;20220;-73
2021/12/26 05:03:36;;;;;;;11.83;10.60;;;;;;;6.53;100.00;95617.88;5055899;28;20238;-72
2021/12/26 05:06:03;;;;;;;11.60;10.50;;;;;;;6.54;100.00;95620.34;5055386;28;20242;-75
2021/12/26 05:08:30;;;;;;;11.23;10.13;;;;;;;6.53;100.00;95620.47;5069845;28;20203;-72
2021/12/26 05:10:57;;;;;;;11.00;10.00;;;;;;;6.52;100.00;95621.47;5075109;28;20207;-74
2021/12/26 05:13:24;;;;;;;10.63;9.73;;;;;;;6.49;100.00;95615.53;5068401;28;20226;-72
2021/12/26 05:15:50;;;;;;;11.07;10.00;;;;;;;6.49;100.00;95622.56;5080799;28;20203;-75
2021/12/26 05:18:17;;;;;;;11.27;10.27;;;;;;;6.46;100.00;95625.50;5066561;28;20215;-73
2021/12/26 05:20:44;;;;;;;10.23;9.33;;;;;;;6.43;100.00;95623.97;5066943;28;20218;-74
2021/12/26 05:23:10;;;;;;;10.60;9.60;;;;;;;6.46;100.00;95626.31;5070423;28;20678;-72
2021/12/26 05:25:37;;;;;;;10.90;9.80;;;;;;;6.45;100.00;95631.69;5071993;28;20211;-73
2021/12/26 05:28:05;;;;;;;11.33;10.33;;;;;;;6.48;100.00;95628.81;5083109;28;20213;-73
2021/12/26 05:30:32;;;;;;;10.50;9.60;;;;;;;6.52;100.00;95627.53;5076512;28;20211;-72
2021/12/26 05:32:58;;;;;;;10.87;9.77;;;;;;;6.48;100.00;95623.56;5074059;28;20195;-72
2021/12/26 05:35:26;;;;;;;11.07;10.07;;;;;;;6.53;100.00;95634.44;5072871;28;20199;-72
2021/12/26 05:37:53;;;;;;;10.80;9.80;;;;;;;6.48;100.00;95623.56;5075597;28;20214;-75
2021/12/26 05:40:19;;;;;;;10.07;9.17;;;;;;;6.47;100.00;95627.97;5074875;28;20239;-74
2021/12/26 05:42:47;;;;;;;10.97;10.00;;;;;;;6.45;100.00;95629.06;5069293;28;20215;-72
2021/12/26 05:45:15;;;;;;;11.50;10.40;;;;;;;6.46;100.00;95625.50;5066515;28;20207;-75
2021/12/26 05:47:42;;;;;;;10.80;9.80;;;;;;;6.46;100.00;95625.50;5067971;28;20215;-74
2021/12/26 05:50:10;;;;;;;10.87;9.93;;;;;;;6.46;100.00;95630.75;5071161;28;20202;-75
2021/12/26 05:52:37;;;;;;;10.77;9.87;;;;;;;6.47;100.00;95627.16;5081601;28;20217;-72
2021/12/26 05:55:04;;;;;;;10.90;9.90;;;;;;;6.45;100.00;95618.56;5069894;28;20207;-76
2021/12/26 05:57:30;;;;;;;10.70;9.80;;;;;;;6.46;100.00;95625.50;5058766;28;20211;-76
2021/12/26 05:59:57;;;;;;;10.80;9.80;;;;;;;6.44;100.00;95627.44;5058794;28;20211;-72
2021/12/26 06:02:25;;;;;;;10.60;9.67;;;;;;;6.43;100.00;95625.78;5058744;28;20214;-71
2021/12/26 06:04:51;;;;;;;11.37;10.20;;;;;;;6.42;100.00;95624.94;5059164;28;20650;-73
2021/12/26 06:07:18;;;;;;;10.20;9.27;;;;;;;6.43;100.00;95626.59;5059528;28;20210;-75
2021/12/26 06:09:44;;;;;;;9.93;9.13;;;;;;;6.48;100.00;95624.38;5061297;28;20226;-72
2021/12/26 06:12:11;;;;;;;10.97;9.97;;;;;;;6.44;100.00;95633.53;5061675;28;20299;-75
2021/12/26 06:14:37;;;;;;;10.43;9.63;;;;;;;6.43;100.00;95631.03;5074506;28;20207;-74
2021/12/26 06:17:04;;;;;;;10.37;9.37;;;;;;;6.45;100.00;95631.69;5079786;28;20199;-72
2021/12/26 06:19:32;;;;;;;9.70;8.90;;;;;;;6.43;100.00;95628.41;5079275;28;20198;-73
2021/12/26 06:21:59;;;;;;;10.13;9.23;;;;;;;6.42;100.00;95626.75;5079820;28;20175;-73
2021/12/26 06:24:25;;;;;;;10.37;9.57;;;;;;;6.37;100.00;95621.09;5069002;28;20230;-76
2021/12/26 06:26:52;;;;;;;9.77;8.87;;;;;;;6.36;100.00;95629.94;5057653;28;20203;-71
2021/12/26 06:29:18;;;;;;;9.73;8.90;;;;;;;6.38;100.00;95625.38;5075173;28;20225;-72
2021/12/26 06:31:44;;;;;;;9.43;8.63;;;;;;;6.37;100.00;95621.94;5070552;28;20211;-72
2021/12/26 06:34:11;;;;;;;9.43;8.63;;;;;;;6.40;100.00;95633.94;5066152;28;20208;-71
2021/12/26 06:36:39;;;;;;;9.20;8.40;;;;;;;6.37;100.00;95627.19;5056004;28;20202;-72
2021/12/26 06:39:06;;;;;;;9.00;8.30;;;;;;;6.37;100.00;95628.97;5056472;28;20211;-72
2021/12/26 06:41:33;;;;;;;8.93;8.13;;;;;;;6.39;100.00;95633.13;5070183;28;20230;-76
2021/12/26 06:43:59;;;;;;;8.63;7.93;;;;;;;6.38;100.00;95633.25;5069357;28;20223;-76
2021/12/26 06:46:26;;;;;;;8.50;7.77;;;;;;;6.41;100.00;95633.78;5056257;28;20215;-75
2021/12/26 06:48:52;;;;;;;9.17;8.23;;;;;;;6.38;100.00;95628.00;5055980;28;20210;-73
2021/12/26 06:51:20;;;;;;;7.90;7.23;;;;;;;6.38;100.00;95633.25;5055833;28;20218;-73
2021/12/26 06:53:47;;;;;;;8.37;7.67;;;;;;;6.40;100.00;95641.81;5067172;28;20203;-73
2021/12/26 06:56:14;;;;;;;8.20;7.40;;;;;;;6.39;100.00;95638.38;5077548;28;20198;-72
2021/12/26 06:58:40;;;;;;;7.70;7.10;;;;;;;6.46;100.00;95636.00;5082555;28;20194;-76
2021/12/26 07:01:07;;;;;;;8.23;7.53;;;;;;;6.47;100.00;95642.91;5072349;28;20611;-73
2021/12/26 07:03:33;;;;;;;8.67;7.90;;;;;;;6.43;100.00;95642.38;5061173;28;20235;-73
2021/12/26 07:05:59;;;;;;;8.27;7.57;;;;;;;6.42;100.00;95647.75;5057864;28;20218;-76
2021/12/26 07:08:26;;;;;;;8.33;7.63;;;;;;;6.45;100.00;95655.34;5055913;28;20214;-73
2021/12/26 07:10:54;;;;;;;7.93;7.23;;;;;;;6.40;100.00;95647.91;5055452;28;20207;-71
2021/12/26 07:13:20;;;;;;;8.17;7.40;;;;;;;6.40;100.00;95657.56;5044454;28;20223;-72
2021/12/26 07:15:47;;;;;;;9.10;7.90;;;;;;;6.40;100.00;95647.06;5067811;28;20519;-75
2021/12/26 07:18:13;;;;;;;8.20;7.50;;;;;;;6.44;100.00;95654.53;5075989;28;20210;-76
2021/12/26 07:20:40;;;;;;;7.30;6.67;;;;;;;6.41;100.00;95654.00;5073690;28;20641;-76
2021/12/26 07:23:06;;;;;;;7.13;6.50;;;;;;;6.43;100.00;95660.75;5055991;28;20509;-76
2021/12/26 07:25:33;;;;;;;7.13;6.43;;;;;;;6.42;100.00;95663.50;5055111;28;20230;-76
2021/12/26 07:28:01;;;;;;;6.70;6.20;;;;;;;6.46;100.00;95662.25;5056408;28;20207;-75
2021/12/26 07:30:28;;;;;;;6.37;5.87;;;;;;;6.48;100.00;95670.84;5056156;28;20214;-75
2021/12/26 07:32:54;;;;;;;6.37;5.87;;;;;;;6.54;100.00;95669.44;5055984;28;20550;-75
2021/12/26 07:35:21;;;;;;;6.97;6.37;;;;;;;6.53;100.00;95671.22;5065606;28;20211;-75
2021/12/26 07:37:47;;;;;;;6.00;5.60;;;;;;;6.58;100.00;95671.63;5055817;28;20230;-73
2021/12/26 07:40:14;;;;;;;6.60;5.97;;;;;;;6.57;100.00;95672.59;5055884;28;20557;-73
2021/12/26 07:42:41;;;;;;;6.40;5.90;;;;;;;6.54;100.00;95665.00;5055049;28;20542;-76
2021/12/26 07:45:10;;;;;;;6.80;6.17;;;;;;;6.60;100.00;95674.94;5055306;28;20307;-76
2021/12/26 07:47:37;;;;;;;7.40;6.80;;;;;;;6.64;100.00;95681.56;5054762;28;20627;-76
2021/12/26 07:50:04;;;;;;;7.20;6.60;;;;;;;6.62;100.00;95683.53;5055192;28;20214;-72
2021/12/26 07:52:34;;;;;;;6.80;6.20;;;;;;;6.66;100.00;95684.06;5055230;28;20207;-74
2021/12/26 07:55:03;;;;;;;7.20;6.60;;;;;;;6.65;100.00;95675.34;5055097;28;20398;-75
2021/12/26 07:57:29;;;;;;;6.10;5.60;;;;;;;6.69;100.00;95684.59;5055116;28;20265;-76
2021/12/26 07:59:56;;;;;;;7.03;6.50;;;;;;;6.70;100.00;95691.50;5054915;28;20222;-76
2021/12/26 08:02:24;;;;;;;7.53;6.93;;;;;;;6.73;100.00;95690.41;5065405;28;20508;-76
2021/12/26 08:04:50;;;;;;;6.97;6.40;;;;;;;6.71;100.00;95685.28;5054874;28;20230;-75
2021/12/26 08:07:17;;;;;;;7.53;6.87;;;;;;;6.77;100.00;95689.94;5054936;28;20203;-72
2021/12/26 08:09:43;;;;;;;7.20;6.70;;;;;;;6.76;100.00;95690.94;5055049;28;20221;-75
2021/12/26 08:12:10;;;;;;;7.13;6.53;;;;;;;6.77;100.00;95691.75;5054727;28;20210;-72
2021/12/26 08:14:37;;;;;;;7.53;6.83;;;;;;;6.81;100.00;95688.69;5054958;28;20630;-76
2021/12/26 08:17:04;;;;;;;7.30;6.70;;;;;;;6.84;100.00;95693.66;5054810;28;20207;-72
2021/12/26 08:19:34;;;;;;;7.13;6.43;;;;;;;6.87;100.00;95692.56;5058562;28;20259;-74
2021/12/26 08:22:01;;;;;;;7.47;6.87;;;;;;;6.88;100.00;95695.03;5055996;28;20218;-71
2021/12/26 08:24:27;;;;;;;7.23;6.63;;;;;;;6.91;100.00;95707.06;5055253;28;20318;-71
2021/12/26 08:26:54;;;;;;;7.63;7.03;;;;;;;6.95;100.00;95704.00;5055577;28;20584;-72
2021/12/26 08:29:21;;;;;;;8.17;7.37;;;;;;;7.03;100.00;95702.44;5069078;28;20225;-72
2021/12/26 08:31:48;;;;;;;8.27;7.50;;;;;;;7.06;100.00;95702.16;5069338;28;20216;-75
2021/12/26 08:34:19;;;;;;;8.57;7.83;;;;;;;7.05;100.00;95703.16;5069730;28;20210;-75
2021/12/26 08:36:48;;;;;;;8.73;7.87;;;;;;;7.00;100.00;95698.31;5057532;28;20501;-73
2021/12/26 08:39:15;;;;;;;8.67;7.87;;;;;;;7.00;100.00;95704.41;5074628;28;20218;-71
2021/12/26 08:41:41;;;;;;;8.23;7.53;;;;;;;7.05;100.00;95703.97;5074274;28;20210;-72
2021/12/26 08:44:08;;;;;;;8.63;7.93;;;;;;;7.08;100.00;95710.75;5074792;28;20233;-75
2021/12/26 08:46:34;;;;;;;8.97;8.17;;;;;;;7.10;100.00;95706.16;5075181;28;20206;-71
2021/12/26 08:49:01;;;;;;;7.93;7.13;;;;;;;7.12;100.00;95701.59;5069067;28;20199;-76
2021/12/26 08:51:27;;;;;;;8.50;7.83;;;;;;;7.11;100.00;95705.19;5070076;28;20222;-75
2021/12/26 08:53:55;;;;;;;8.13;7.43;;;;;;;7.17;100.00;95700.19;5075487;28;20210;-76
2021/12/26 08:56:21;;;;;;;7.10;6.60;;;;;;;7.23;100.00;95706.66;5078802;28;20220;-73
2021/12/26 08:58:48;;;;;;;7.47;6.77;;;;;;;7.22;100.00;95702.38;5079145;28;20206;-75
2021/12/26 09:01:14;;;;;;;6.67;6.17;;;;;;;7.23;100.00;95712.75;5092074;28;20206;-75
2021/12/26 09:03:41;;;;;;;6.57;6.07;;;;;;;7.25;100.00;95707.34;5077636;28;20199;-76
2021/12/26 09:06:07;;;;;;;5.90;5.50;;;;;;;7.30;100.00;95710.34;5073713;28;20206;-73
2021/12/26 09:08:34;;;;;;;6.30;5.77;;;;;;;7.36;100.00;95713.25;5065246;28;20214;-74
2021/12/26 09:11:02;;;;;;;7.03;6.43;;;;;;;7.39;100.00;95720.00;5063663;28;20207;-76
2021/12/26 09:13:28;;;;;;;6.43;5.93;;;;;;;7.42;100.00;95714.47;5068188;28;20234;-72
2021/12/26 09:15:55;;;;;;;6.50;6.00;;;;;;;7.47;100.00;95712.22;5071416;28;20286;-71
2021/12/26 09:18:21;;;;;;;6.00;5.60;;;;;;;7.55;100.00;95714.94;5073696;28;20214;-71
2021/12/26 09:20:48;;;;;;;6.57;6.07;;;;;;;7.59;100.00;95716.28;5074495;28;20214;-74
2021/12/26 09:23:14;;;;;;;6.00;5.40;;;;;;;7.59;100.00;95720.72;5073307;28;20236;-71
2021/12/26 09:25:41;;;;;;;5.90;5.37;;;;;;;7.67;100.00;95719.03;5063987;28;20227;-74
2021/12/26 09:28:09;;;;;;;5.47;5.07;;;;;;;7.65;100.00;95718.31;5066966;28;20206;-70
2021/12/26 09:30:35;;;;;;;5.47;5.07;;;;;;;7.69;100.00;95717.06;5067500;28;20305;-76
2021/12/26 09:33:02;;;;;;;5.30;4.90;;;;;;;7.75;100.00;95724.38;5094776;28;20198;-72
2021/12/26 09:35:28;;;;;;;5.73;5.23;;;;;;;7.76;100.00;95723.38;5099399;28;20198;-72
2021/12/26 09:37:55;;;;;;;5.07;4.67;;;;;;;7.79;100.00;95717.84;5099998;28;20198;-71
2021/12/26 09:40:22;;;;;;;5.27;4.77;;;;;;;7.88;100.00;95721.38;5099428;28;20245;-73
2021/12/26 09:42:49;;;;;;;5.50;5.07;;;;;;;7.92;100.00;95723.56;5099324;28;20200;-76
2021/12/26 09:45:18;;;;;;;5.00;4.70;;;;;;;8.01;100.00;95722.66;5077255;28;20242;-71
2021/12/26 09:47:49;;;;;;;5.10;4.70;;;;;;;8.13;100.00;95732.97;5077666;28;20206;-72
2021/12/26 09:50:18;;;;;;;5.33;4.93;;;;;;;8.15;100.00;95734.47;5073945;28;20183;-76
2021/12/26 09:52:46;;;;;;;5.30;4.90;;;;;;;8.10;100.00;95730.66;5075811;28;20202;-74
2021/12/26 09:55:13;;;;;;;4.70;4.40;;;;;;;8.09;100.00;95724.56;5077754;28;20291;-74
2021/12/26 09:57:40;;;;;;;4.80;4.50;;;;;;;8.00;100.00;95726.31;5074206;28;20215;-72
2021/12/26 10:00:22;;;;;;;5.43;4.93;;;;;;;8.09;100.00;95713.19;5082647;28;20207;-72
2021/12/26 10:03:12;;;;;;;4.90;4.40;;;;;;;7.97;100.00;95718.66;5069710;28;20202;-72
2021/12/26 10:06:13;;;;;;;4.87;4.40;;;;;;;7.96;100.00;95711.78;5067932;28;20218;-73
2021/12/26 10:08:56;;;;;;;4.67;4.37;;;;;;;8.02;100.00;95723.50;5078013;28;20225;-74
2021/12/26 10:11:25;;;;;;;5.40;4.90;;;;;;;7.99;100.00;95708.00;5077765;28;20203;-75
2021/12/26 10:13:53;;;;;;;5.37;4.73;;;;;;;8.05;100.00;95699.50;5072566;28;20233;-74
2021/12/26 10:16:23;;;;;;;4.30;3.97;;;;;;;8.08;100.00;95701.81;5073953;28;20309;-72
2021/12/26 10:18:50;;;;;;;5.30;4.50;;;;;;;8.16;100.00;95701.06;5071166;28;20215;-72
2021/12/26 10:21:35;;;;;;;4.90;4.50;;;;;;;8.15;100.00;95694.19;5074400;28;20206;-75
2021/12/26 10:24:06;;;;;;;4.60;4.30;;;;;;;8.17;100.00;95703.56;5068051;28;20203;-76
2021/12/26 10:26:35;;;;;;;4.47;4.17;;;;;;;8.21;100.00;95698.81;5084647;28;20206;-76
2021/12/26 10:29:07;;;;;;;5.00;4.60;;;;;;;8.12;100.00;95686.56;5091173;28;20301;-74
2021/12/26 10:31:37;;;;;;;4.57;4.23;;;;;;;8.16;100.00;95695.81;5052005;28;20211;-71
2021/12/26 10:34:03;;;;;;;4.70;4.30;;;;;;;8.20;100.00;95694.53;5050968;28;20208;-76
2021/12/26 10:36:30;;;;;;;4.93;4.40;;;;;;;8.18;100.00;95685.97;5052727;28;20204;-73
2021/12/26 10:39:12;;;;;;;4.57;4.17;;;;;;;8.15;100.00;95681.81;5050658;28;20204;-76
2021/12/26 10:41:41;;;;;;;4.40;4.00;;;;;;;8.20;100.00;95684.84;5051503;28;20257;-72
2021/12/26 10:44:08;;;;;;;4.30;4.00;;;;;;;8.18;100.00;95688.59;5052341;28;20199;-75
2021/12/26 10:46:38;;;;;;;4.50;4.20;;;;;;;8.24;99.86;95688.00;5040858;28;20227;-71
2021/12/26 10:49:29;;;;;;;4.60;4.30;;;;;;;8.19;100.00;95695.50;5039646;28;20303;-76
2021/12/26 10:51:55;;;;;;;5.00;4.60;;;;;;;8.17;100.00;95684.31;5058568;28;20532;-76
2021/12/26 10:54:26;;;;;;;4.10;3.80;;;;;;;8.19;99.88;95687.59;5058849;28;20222;-76
2021/12/26 10:57:04;;;;;;;4.23;3.93;;;;;;;8.19;99.80;95687.59;5057465;28;20289;-71
2021/12/26 10:59:31;;;;;;;4.30;3.93;;;;;;;8.12;99.32;95687.38;5058060;28;20203;-76
2021/12/26 11:01:59;;;;;;;4.20;3.83;;;;;;;8.24;99.67;95682.72;5057727;28;20643;-75
2021/12/26 11:04:25;;;;;;;6.17;5.57;;;;;;;8.22;100.00;95684.69;5057381;28;20306;-71
2021/12/26 11:07:02;;;;;;;4.40;4.10;;;;;;;8.15;99.36;95683.66;5061288;28;20211;-72
2021/12/26 11:09:28;;;;;;;4.43;4.13;;;;;;;8.17;99.50;95679.03;5073250;28;20211;-75
2021/12/26 11:12:00;;;;;;;4.10;3.80;;;;;;;8.15;99.39;95673.91;5072234;28;20195;-74
2021/12/26 11:14:26;;;;;;;4.50;4.10;;;;;;;8.22;100.00;95672.31;5066249;28;20214;-71
2021/12/26 11:16:53;;;;;;;4.50;4.20;;;;;;;8.30;99.67;95674.22;5058074;28;20282;-72
2021/12/26 11:19:46;;;;;;;4.10;3.80;;;;;;;8.36;99.29;95678.91;5056647;28;20611;-74
2021/12/26 11:22:13;;;;;;;3.67;3.47;;;;;;;8.46;99.20;95677.00;5058825;28;20210;-71
2021/12/26 11:24:40;;;;;;;4.23;3.53;;;;;;;8.48;99.06;95667.97;5063034;28;20206;-72
2021/12/26 11:27:07;;;;;;;4.30;3.87;;;;;;;8.53;97.31;95664.88;5057704;28;20203;-74
2021/12/26 11:29:34;;;;;;;3.60;3.40;;;;;;;8.45;96.80;95670.06;5057585;28;20215;-74
2021/12/26 11:32:01;;;;;;;3.43;3.23;;;;;;;8.42;95.97;95659.84;5057442;28;20218;-71
2021/12/26 11:34:28;;;;;;;3.03;2.83;;;;;;;8.58;95.83;95667.84;5066167;28;20206;-73